sensor_id;sensor_type;location;lat;lon;timestamp;P1;durP1;ratioP1;P2;durP2;ratioP2
50683;SDS011;36654;45.042;38.994;2024-02-21T00:00:37;18.00;;;9.70;;
50683;SDS011;36654;45.042;38.994;2024-02-21T00:03:04;17.20;;;7.97;;
50683;SDS011;36654;45.042;38.994;2024-02-21T00:05:30;14.45;;;8.50;;
50683;SDS011;36654;45.042;38.994;2024-02-21T00:07:55;18.02;;;8.40;;
50683;SDS011;36654;45.042;38.994;2024-02-21T00:10:24;17.52;;;8.80;;
50683;SDS011;36654;45.042;38.994;2024-02-21T00:12:50;16.15;;;7.78;;
50683;SDS011;36654;45.042;38.994;2024-02-21T00:15:16;15.40;;;8.60;;
50683;SDS011;36654;45.042;38.994;2024-02-21T00:17:43;14.15;;;7.85;;
50683;SDS011;36654;45.042;38.994;2024-02-21T00:20:09;16.92;;;7.75;;
50683;SDS011;36654;45.042;38.994;2024-02-21T00:22:35;15.15;;;7.60;;
50683;SDS011;36654;45.042;38.994;2024-02-21T00:25:01;16.38;;;8.82;;
50683;SDS011;36654;45.042;38.994;2024-02-21T00:27:27;15.70;;;8.10;;
50683;SDS011;36654;45.042;38.994;2024-02-21T00:29:54;15.77;;;8.10;;
50683;SDS011;36654;45.042;38.994;2024-02-21T00:32:21;14.23;;;8.05;;
50683;SDS011;36654;45.042;38.994;2024-02-21T00:34:47;13.23;;;8.50;;
50683;SDS011;36654;45.042;38.994;2024-02-21T00:37:12;16.45;;;8.45;;
50683;SDS011;36654;45.042;38.994;2024-02-21T00:39:38;15.57;;;8.48;;
50683;SDS011;36654;45.042;38.994;2024-02-21T00:42:04;14.68;;;7.40;;
50683;SDS011;36654;45.042;38.994;2024-02-21T00:44:29;14.77;;;8.20;;
50683;SDS011;36654;45.042;38.994;2024-02-21T00:46:55;16.05;;;7.65;;
50683;SDS011;36654;45.042;38.994;2024-02-21T00:49:21;14.30;;;7.60;;
50683;SDS011;36654;45.042;38.994;2024-02-21T00:51:47;13.68;;;6.90;;
50683;SDS011;36654;45.042;38.994;2024-02-21T00:54:12;15.02;;;7.80;;
50683;SDS011;36654;45.042;38.994;2024-02-21T00:56:38;13.25;;;7.15;;
50683;SDS011;36654;45.042;38.994;2024-02-21T00:59:04;21.55;;;7.85;;
50683;SDS011;36654;45.042;38.994;2024-02-21T01:01:29;16.13;;;7.40;;
50683;SDS011;36654;45.042;38.994;2024-02-21T01:03:55;15.50;;;7.38;;
50683;SDS011;36654;45.042;38.994;2024-02-21T01:06:21;18.73;;;8.07;;
50683;SDS011;36654;45.042;38.994;2024-02-21T01:08:47;12.82;;;7.80;;
50683;SDS011;36654;45.042;38.994;2024-02-21T01:11:13;13.15;;;7.88;;
50683;SDS011;36654;45.042;38.994;2024-02-21T01:13:39;15.70;;;7.55;;
50683;SDS011;36654;45.042;38.994;2024-02-21T01:16:05;17.52;;;7.22;;
50683;SDS011;36654;45.042;38.994;2024-02-21T01:18:32;11.13;;;6.60;;
50683;SDS011;36654;45.042;38.994;2024-02-21T01:20:58;18.23;;;6.50;;
50683;SDS011;36654;45.042;38.994;2024-02-21T01:23:25;15.13;;;6.70;;
50683;SDS011;36654;45.042;38.994;2024-02-21T01:25:51;14.13;;;6.60;;
50683;SDS011;36654;45.042;38.994;2024-02-21T01:28:17;10.75;;;6.40;;
50683;SDS011;36654;45.042;38.994;2024-02-21T01:30:44;11.50;;;6.43;;
50683;SDS011;36654;45.042;38.994;2024-02-21T01:33:10;12.93;;;7.18;;
50683;SDS011;36654;45.042;38.994;2024-02-21T01:35:35;11.93;;;6.30;;
50683;SDS011;36654;45.042;38.994;2024-02-21T01:38:02;11.07;;;6.40;;
50683;SDS011;36654;45.042;38.994;2024-02-21T01:40:28;11.55;;;6.13;;
50683;SDS011;36654;45.042;38.994;2024-02-21T01:42:55;11.00;;;6.45;;
50683;SDS011;36654;45.042;38.994;2024-02-21T01:45:20;13.55;;;7.13;;
50683;SDS011;36654;45.042;38.994;2024-02-21T01:47:47;11.98;;;6.80;;
50683;SDS011;36654;45.042;38.994;2024-02-21T01:50:13;11.43;;;6.43;;
50683;SDS011;36654;45.042;38.994;2024-02-21T01:52:40;14.60;;;6.00;;
50683;SDS011;36654;45.042;38.994;2024-02-21T01:55:08;13.30;;;7.20;;
50683;SDS011;36654;45.042;38.994;2024-02-21T01:57:36;13.75;;;6.82;;
50683;SDS011;36654;45.042;38.994;2024-02-21T02:00:02;11.95;;;6.32;;
50683;SDS011;36654;45.042;38.994;2024-02-21T02:02:28;11.57;;;6.55;;
50683;SDS011;36654;45.042;38.994;2024-02-21T02:04:54;14.38;;;6.88;;
50683;SDS011;36654;45.042;38.994;2024-02-21T02:07:21;12.05;;;6.53;;
50683;SDS011;36654;45.042;38.994;2024-02-21T02:09:47;13.57;;;6.63;;
50683;SDS011;36654;45.042;38.994;2024-02-21T02:12:12;11.68;;;6.38;;
50683;SDS011;36654;45.042;38.994;2024-02-21T02:14:38;11.60;;;6.30;;
50683;SDS011;36654;45.042;38.994;2024-02-21T02:17:04;13.13;;;6.50;;
50683;SDS011;36654;45.042;38.994;2024-02-21T02:19:30;12.65;;;6.88;;
50683;SDS011;36654;45.042;38.994;2024-02-21T02:22:00;11.60;;;7.00;;
50683;SDS011;36654;45.042;38.994;2024-02-21T02:24:40;13.55;;;6.75;;
50683;SDS011;36654;45.042;38.994;2024-02-21T02:27:09;12.30;;;6.70;;
50683;SDS011;36654;45.042;38.994;2024-02-21T02:29:35;12.38;;;7.10;;
50683;SDS011;36654;45.042;38.994;2024-02-21T02:32:00;12.68;;;6.78;;
50683;SDS011;36654;45.042;38.994;2024-02-21T02:34:26;14.15;;;6.70;;
50683;SDS011;36654;45.042;38.994;2024-02-21T02:36:52;11.27;;;6.88;;
50683;SDS011;36654;45.042;38.994;2024-02-21T02:39:17;15.18;;;7.53;;
50683;SDS011;36654;45.042;38.994;2024-02-21T02:41:43;12.55;;;8.02;;
50683;SDS011;36654;45.042;38.994;2024-02-21T02:44:09;14.63;;;7.47;;
50683;SDS011;36654;45.042;38.994;2024-02-21T02:46:34;15.10;;;7.07;;
50683;SDS011;36654;45.042;38.994;2024-02-21T02:49:00;17.80;;;8.38;;
50683;SDS011;36654;45.042;38.994;2024-02-21T02:51:26;15.88;;;8.43;;
50683;SDS011;36654;45.042;38.994;2024-02-21T02:53:51;13.25;;;7.63;;
50683;SDS011;36654;45.042;38.994;2024-02-21T02:56:17;13.60;;;7.63;;
50683;SDS011;36654;45.042;38.994;2024-02-21T02:58:43;17.00;;;8.50;;
50683;SDS011;36654;45.042;38.994;2024-02-21T03:01:09;11.73;;;7.45;;
50683;SDS011;36654;45.042;38.994;2024-02-21T03:03:34;15.55;;;7.75;;
50683;SDS011;36654;45.042;38.994;2024-02-21T03:06:00;17.58;;;8.20;;
50683;SDS011;36654;45.042;38.994;2024-02-21T03:08:26;12.45;;;7.75;;
50683;SDS011;36654;45.042;38.994;2024-02-21T03:10:52;13.05;;;7.88;;
50683;SDS011;36654;45.042;38.994;2024-02-21T03:13:17;19.30;;;8.85;;
50683;SDS011;36654;45.042;38.994;2024-02-21T03:15:44;16.52;;;7.85;;
50683;SDS011;36654;45.042;38.994;2024-02-21T03:18:09;15.52;;;8.25;;
50683;SDS011;36654;45.042;38.994;2024-02-21T03:20:35;16.17;;;8.07;;
50683;SDS011;36654;45.042;38.994;2024-02-21T03:23:01;15.02;;;8.40;;
50683;SDS011;36654;45.042;38.994;2024-02-21T03:25:26;14.23;;;8.43;;
50683;SDS011;36654;45.042;38.994;2024-02-21T03:27:53;26.90;;;10.18;;
50683;SDS011;36654;45.042;38.994;2024-02-21T03:30:18;18.40;;;8.88;;
50683;SDS011;36654;45.042;38.994;2024-02-21T03:32:45;14.57;;;8.55;;
50683;SDS011;36654;45.042;38.994;2024-02-21T03:35:11;12.35;;;7.97;;
50683;SDS011;36654;45.042;38.994;2024-02-21T03:37:36;17.42;;;8.10;;
50683;SDS011;36654;45.042;38.994;2024-02-21T03:40:02;14.25;;;8.00;;
50683;SDS011;36654;45.042;38.994;2024-02-21T03:42:32;16.65;;;8.93;;
50683;SDS011;36654;45.042;38.994;2024-02-21T03:44:57;17.00;;;9.07;;
50683;SDS011;36654;45.042;38.994;2024-02-21T03:47:23;19.00;;;9.13;;
50683;SDS011;36654;45.042;38.994;2024-02-21T03:49:49;17.08;;;9.50;;
50683;SDS011;36654;45.042;38.994;2024-02-21T03:52:15;12.75;;;8.25;;
50683;SDS011;36654;45.042;38.994;2024-02-21T03:54:41;17.15;;;8.73;;
50683;SDS011;36654;45.042;38.994;2024-02-21T03:57:07;16.75;;;8.75;;
50683;SDS011;36654;45.042;38.994;2024-02-21T03:59:33;15.55;;;8.25;;
50683;SDS011;36654;45.042;38.994;2024-02-21T04:01:59;15.82;;;8.65;;
50683;SDS011;36654;45.042;38.994;2024-02-21T04:04:25;16.55;;;8.55;;
50683;SDS011;36654;45.042;38.994;2024-02-21T04:06:52;17.85;;;9.88;;
50683;SDS011;36654;45.042;38.994;2024-02-21T04:09:17;17.77;;;8.90;;
50683;SDS011;36654;45.042;38.994;2024-02-21T04:11:43;14.50;;;8.00;;
50683;SDS011;36654;45.042;38.994;2024-02-21T04:14:09;18.40;;;8.68;;
50683;SDS011;36654;45.042;38.994;2024-02-21T04:16:36;18.13;;;9.50;;
50683;SDS011;36654;45.042;38.994;2024-02-21T04:19:02;22.08;;;9.15;;
50683;SDS011;36654;45.042;38.994;2024-02-21T04:21:27;14.98;;;8.93;;
50683;SDS011;36654;45.042;38.994;2024-02-21T04:23:53;17.67;;;8.73;;
50683;SDS011;36654;45.042;38.994;2024-02-21T04:26:19;15.98;;;9.23;;
50683;SDS011;36654;45.042;38.994;2024-02-21T04:28:45;21.17;;;9.40;;
50683;SDS011;36654;45.042;38.994;2024-02-21T04:31:11;18.80;;;8.80;;
50683;SDS011;36654;45.042;38.994;2024-02-21T04:33:36;19.67;;;8.93;;
50683;SDS011;36654;45.042;38.994;2024-02-21T04:36:02;18.13;;;9.50;;
50683;SDS011;36654;45.042;38.994;2024-02-21T04:38:28;15.30;;;9.23;;
50683;SDS011;36654;45.042;38.994;2024-02-21T04:40:55;25.33;;;9.05;;
50683;SDS011;36654;45.042;38.994;2024-02-21T04:43:24;20.30;;;9.20;;
50683;SDS011;36654;45.042;38.994;2024-02-21T04:45:52;21.70;;;9.55;;
50683;SDS011;36654;45.042;38.994;2024-02-21T04:48:18;17.55;;;9.77;;
50683;SDS011;36654;45.042;38.994;2024-02-21T04:50:44;23.95;;;9.27;;
50683;SDS011;36654;45.042;38.994;2024-02-21T04:53:10;17.80;;;9.18;;
50683;SDS011;36654;45.042;38.994;2024-02-21T04:55:36;16.52;;;10.15;;
50683;SDS011;36654;45.042;38.994;2024-02-21T04:58:01;20.20;;;9.10;;
50683;SDS011;36654;45.042;38.994;2024-02-21T05:00:27;16.20;;;8.65;;
50683;SDS011;36654;45.042;38.994;2024-02-21T05:02:53;19.58;;;9.18;;
50683;SDS011;36654;45.042;38.994;2024-02-21T05:05:18;17.88;;;9.02;;
50683;SDS011;36654;45.042;38.994;2024-02-21T05:07:44;21.38;;;10.13;;
50683;SDS011;36654;45.042;38.994;2024-02-21T05:10:11;21.67;;;11.35;;
50683;SDS011;36654;45.042;38.994;2024-02-21T05:12:37;18.88;;;9.30;;
50683;SDS011;36654;45.042;38.994;2024-02-21T05:15:03;17.30;;;9.52;;
50683;SDS011;36654;45.042;38.994;2024-02-21T05:17:29;18.08;;;9.23;;
50683;SDS011;36654;45.042;38.994;2024-02-21T05:19:58;16.08;;;9.60;;
50683;SDS011;36654;45.042;38.994;2024-02-21T05:22:23;21.08;;;9.82;;
50683;SDS011;36654;45.042;38.994;2024-02-21T05:24:50;22.75;;;10.38;;
50683;SDS011;36654;45.042;38.994;2024-02-21T05:27:15;18.08;;;9.00;;
50683;SDS011;36654;45.042;38.994;2024-02-21T05:29:41;25.55;;;10.30;;
50683;SDS011;36654;45.042;38.994;2024-02-21T05:32:06;22.38;;;9.52;;
50683;SDS011;36654;45.042;38.994;2024-02-21T05:34:32;26.58;;;10.60;;
50683;SDS011;36654;45.042;38.994;2024-02-21T05:37:00;19.83;;;9.85;;
50683;SDS011;36654;45.042;38.994;2024-02-21T05:39:26;19.00;;;9.20;;
50683;SDS011;36654;45.042;38.994;2024-02-21T05:41:51;20.50;;;9.23;;
50683;SDS011;36654;45.042;38.994;2024-02-21T05:44:18;19.80;;;10.23;;
50683;SDS011;36654;45.042;38.994;2024-02-21T05:46:44;20.45;;;10.32;;
50683;SDS011;36654;45.042;38.994;2024-02-21T05:49:10;20.92;;;9.60;;
50683;SDS011;36654;45.042;38.994;2024-02-21T05:51:37;22.05;;;10.23;;
50683;SDS011;36654;45.042;38.994;2024-02-21T05:54:03;25.33;;;10.93;;
50683;SDS011;36654;45.042;38.994;2024-02-21T05:56:29;20.15;;;10.35;;
50683;SDS011;36654;45.042;38.994;2024-02-21T05:58:54;19.05;;;9.57;;
50683;SDS011;36654;45.042;38.994;2024-02-21T06:01:20;24.67;;;9.98;;
50683;SDS011;36654;45.042;38.994;2024-02-21T06:03:48;21.80;;;10.15;;
50683;SDS011;36654;45.042;38.994;2024-02-21T06:06:16;18.70;;;9.60;;
50683;SDS011;36654;45.042;38.994;2024-02-21T06:08:42;20.42;;;9.07;;
50683;SDS011;36654;45.042;38.994;2024-02-21T06:11:08;19.00;;;10.05;;
50683;SDS011;36654;45.042;38.994;2024-02-21T06:13:37;19.50;;;9.63;;
50683;SDS011;36654;45.042;38.994;2024-02-21T06:16:05;23.77;;;9.20;;
50683;SDS011;36654;45.042;38.994;2024-02-21T06:18:31;20.38;;;10.07;;
50683;SDS011;36654;45.042;38.994;2024-02-21T06:20:57;24.90;;;10.02;;
50683;SDS011;36654;45.042;38.994;2024-02-21T06:23:23;23.63;;;10.50;;
50683;SDS011;36654;45.042;38.994;2024-02-21T06:25:48;19.67;;;10.07;;
50683;SDS011;36654;45.042;38.994;2024-02-21T06:28:14;25.15;;;11.48;;
50683;SDS011;36654;45.042;38.994;2024-02-21T06:30:40;24.35;;;11.43;;
50683;SDS011;36654;45.042;38.994;2024-02-21T06:33:07;18.98;;;9.80;;
50683;SDS011;36654;45.042;38.994;2024-02-21T06:35:33;26.30;;;11.30;;
50683;SDS011;36654;45.042;38.994;2024-02-21T06:37:59;21.77;;;10.13;;
50683;SDS011;36654;45.042;38.994;2024-02-21T06:40:26;17.75;;;10.10;;
50683;SDS011;36654;45.042;38.994;2024-02-21T06:42:52;19.70;;;10.57;;
50683;SDS011;36654;45.042;38.994;2024-02-21T06:45:17;16.98;;;10.38;;
50683;SDS011;36654;45.042;38.994;2024-02-21T06:47:43;25.38;;;11.35;;
50683;SDS011;36654;45.042;38.994;2024-02-21T06:50:09;25.27;;;11.70;;
50683;SDS011;36654;45.042;38.994;2024-02-21T06:52:35;19.10;;;10.52;;
50683;SDS011;36654;45.042;38.994;2024-02-21T06:55:01;25.67;;;11.50;;
50683;SDS011;36654;45.042;38.994;2024-02-21T06:57:28;22.45;;;11.32;;
50683;SDS011;36654;45.042;38.994;2024-02-21T06:59:54;22.35;;;11.20;;
50683;SDS011;36654;45.042;38.994;2024-02-21T07:02:20;22.80;;;12.02;;
50683;SDS011;36654;45.042;38.994;2024-02-21T07:04:45;26.73;;;11.90;;
50683;SDS011;36654;45.042;38.994;2024-02-21T07:07:11;25.80;;;14.57;;
50683;SDS011;36654;45.042;38.994;2024-02-21T07:09:38;37.55;;;16.45;;
50683;SDS011;36654;45.042;38.994;2024-02-21T07:12:05;24.88;;;11.60;;
50683;SDS011;36654;45.042;38.994;2024-02-21T07:14:35;26.05;;;12.65;;
50683;SDS011;36654;45.042;38.994;2024-02-21T07:17:01;23.10;;;12.13;;
50683;SDS011;36654;45.042;38.994;2024-02-21T07:19:26;23.48;;;12.23;;
50683;SDS011;36654;45.042;38.994;2024-02-21T07:21:52;25.50;;;11.88;;
50683;SDS011;36654;45.042;38.994;2024-02-21T07:24:18;20.27;;;11.05;;
50683;SDS011;36654;45.042;38.994;2024-02-21T07:26:45;25.63;;;12.18;;
50683;SDS011;36654;45.042;38.994;2024-02-21T07:29:11;25.50;;;11.70;;
50683;SDS011;36654;45.042;38.994;2024-02-21T07:31:41;26.92;;;13.43;;
50683;SDS011;36654;45.042;38.994;2024-02-21T07:34:07;25.40;;;12.85;;
50683;SDS011;36654;45.042;38.994;2024-02-21T07:36:33;25.40;;;12.82;;
50683;SDS011;36654;45.042;38.994;2024-02-21T07:38:59;29.85;;;12.65;;
50683;SDS011;36654;45.042;38.994;2024-02-21T07:41:25;26.20;;;11.90;;
50683;SDS011;36654;45.042;38.994;2024-02-21T07:43:51;20.25;;;11.23;;
50683;SDS011;36654;45.042;38.994;2024-02-21T07:46:17;23.63;;;12.45;;
50683;SDS011;36654;45.042;38.994;2024-02-21T07:48:45;24.35;;;11.85;;
50683;SDS011;36654;45.042;38.994;2024-02-21T07:51:11;26.25;;;11.75;;
50683;SDS011;36654;45.042;38.994;2024-02-21T07:53:38;27.60;;;13.57;;
50683;SDS011;36654;45.042;38.994;2024-02-21T07:56:04;29.48;;;14.02;;
50683;SDS011;36654;45.042;38.994;2024-02-21T07:58:30;30.67;;;13.40;;
50683;SDS011;36654;45.042;38.994;2024-02-21T08:00:55;24.05;;;13.20;;
50683;SDS011;36654;45.042;38.994;2024-02-21T08:03:21;26.58;;;13.25;;
50683;SDS011;36654;45.042;38.994;2024-02-21T08:05:47;26.52;;;13.05;;
50683;SDS011;36654;45.042;38.994;2024-02-21T08:08:13;24.00;;;13.38;;
50683;SDS011;36654;45.042;38.994;2024-02-21T08:10:43;31.15;;;14.45;;
50683;SDS011;36654;45.042;38.994;2024-02-21T08:13:09;35.53;;;14.38;;
50683;SDS011;36654;45.042;38.994;2024-02-21T08:15:35;34.67;;;17.38;;
50683;SDS011;36654;45.042;38.994;2024-02-21T08:18:04;41.42;;;16.98;;
50683;SDS011;36654;45.042;38.994;2024-02-21T08:20:29;30.48;;;14.25;;
50683;SDS011;36654;45.042;38.994;2024-02-21T08:22:55;29.30;;;15.65;;
50683;SDS011;36654;45.042;38.994;2024-02-21T08:25:21;29.70;;;15.55;;
50683;SDS011;36654;45.042;38.994;2024-02-21T08:27:46;33.45;;;16.17;;
50683;SDS011;36654;45.042;38.994;2024-02-21T08:30:12;36.63;;;15.65;;
50683;SDS011;36654;45.042;38.994;2024-02-21T08:32:39;38.55;;;15.70;;
50683;SDS011;36654;45.042;38.994;2024-02-21T08:35:05;27.67;;;14.68;;
50683;SDS011;36654;45.042;38.994;2024-02-21T08:37:31;30.42;;;14.60;;
50683;SDS011;36654;45.042;38.994;2024-02-21T08:39:57;30.90;;;15.27;;
50683;SDS011;36654;45.042;38.994;2024-02-21T08:42:23;30.05;;;15.82;;
50683;SDS011;36654;45.042;38.994;2024-02-21T08:44:49;37.28;;;16.33;;
50683;SDS011;36654;45.042;38.994;2024-02-21T08:47:14;36.03;;;16.67;;
50683;SDS011;36654;45.042;38.994;2024-02-21T08:49:40;34.42;;;18.02;;
50683;SDS011;36654;45.042;38.994;2024-02-21T08:52:06;36.40;;;16.45;;
50683;SDS011;36654;45.042;38.994;2024-02-21T08:54:32;33.35;;;17.17;;
50683;SDS011;36654;45.042;38.994;2024-02-21T08:56:58;36.03;;;16.70;;
50683;SDS011;36654;45.042;38.994;2024-02-21T08:59:24;32.35;;;15.80;;
50683;SDS011;36654;45.042;38.994;2024-02-21T09:01:51;36.40;;;17.67;;
50683;SDS011;36654;45.042;38.994;2024-02-21T09:04:20;30.55;;;16.65;;
50683;SDS011;36654;45.042;38.994;2024-02-21T09:06:45;27.40;;;14.90;;
50683;SDS011;36654;45.042;38.994;2024-02-21T09:09:11;37.50;;;17.25;;
50683;SDS011;36654;45.042;38.994;2024-02-21T09:11:38;34.20;;;16.55;;
50683;SDS011;36654;45.042;38.994;2024-02-21T09:14:05;34.15;;;16.25;;
50683;SDS011;36654;45.042;38.994;2024-02-21T09:16:33;36.15;;;15.65;;
50683;SDS011;36654;45.042;38.994;2024-02-21T09:19:00;33.28;;;15.85;;
50683;SDS011;36654;45.042;38.994;2024-02-21T09:21:26;31.50;;;14.73;;
50683;SDS011;36654;45.042;38.994;2024-02-21T09:23:53;38.08;;;16.17;;
50683;SDS011;36654;45.042;38.994;2024-02-21T09:26:18;32.75;;;13.75;;
50683;SDS011;36654;45.042;38.994;2024-02-21T09:28:44;27.40;;;12.90;;
50683;SDS011;36654;45.042;38.994;2024-02-21T09:31:10;31.42;;;13.45;;
50683;SDS011;36654;45.042;38.994;2024-02-21T09:33:36;27.50;;;13.65;;
50683;SDS011;36654;45.042;38.994;2024-02-21T09:36:02;26.90;;;13.48;;
50683;SDS011;36654;45.042;38.994;2024-02-21T09:38:31;28.77;;;13.55;;
50683;SDS011;36654;45.042;38.994;2024-02-21T09:41:04;30.10;;;14.40;;
50683;SDS011;36654;45.042;38.994;2024-02-21T09:43:33;30.85;;;14.70;;
50683;SDS011;36654;45.042;38.994;2024-02-21T09:46:00;24.95;;;11.45;;
50683;SDS011;36654;45.042;38.994;2024-02-21T09:51:01;22.55;;;12.05;;
50683;SDS011;36654;45.042;38.994;2024-02-21T09:53:28;27.95;;;13.10;;
50683;SDS011;36654;45.042;38.994;2024-02-21T09:55:55;27.95;;;13.52;;
50683;SDS011;36654;45.042;38.994;2024-02-21T09:58:22;28.40;;;14.02;;
50683;SDS011;36654;45.042;38.994;2024-02-21T10:00:49;25.75;;;13.32;;
50683;SDS011;36654;45.042;38.994;2024-02-21T10:03:15;34.55;;;14.70;;
50683;SDS011;36654;45.042;38.994;2024-02-21T10:05:45;30.05;;;12.85;;
50683;SDS011;36654;45.042;38.994;2024-02-21T10:08:16;25.73;;;11.73;;
50683;SDS011;36654;45.042;38.994;2024-02-21T10:10:46;24.45;;;11.48;;
50683;SDS011;36654;45.042;38.994;2024-02-21T10:18:32;30.60;;;14.98;;
50683;SDS011;36654;45.042;38.994;2024-02-21T10:23:26;20.52;;;10.63;;
50683;SDS011;36654;45.042;38.994;2024-02-21T10:25:52;26.30;;;12.95;;
50683;SDS011;36654;45.042;38.994;2024-02-21T10:28:18;20.67;;;11.10;;
50683;SDS011;36654;45.042;38.994;2024-02-21T10:30:51;17.08;;;9.32;;
50683;SDS011;36654;45.042;38.994;2024-02-21T10:33:17;19.50;;;9.43;;
50683;SDS011;36654;45.042;38.994;2024-02-21T10:35:47;21.33;;;10.25;;
50683;SDS011;36654;45.042;38.994;2024-02-21T10:38:16;19.70;;;9.80;;
50683;SDS011;36654;45.042;38.994;2024-02-21T10:40:42;22.35;;;11.05;;
50683;SDS011;36654;45.042;38.994;2024-02-21T10:43:09;17.17;;;8.45;;
50683;SDS011;36654;45.042;38.994;2024-02-21T10:45:37;19.25;;;9.90;;
50683;SDS011;36654;45.042;38.994;2024-02-21T10:48:14;19.80;;;9.57;;
50683;SDS011;36654;45.042;38.994;2024-02-21T10:51:02;20.02;;;11.30;;
50683;SDS011;36654;45.042;38.994;2024-02-21T10:53:41;17.92;;;9.52;;
50683;SDS011;36654;45.042;38.994;2024-02-21T10:56:32;16.48;;;7.90;;
50683;SDS011;36654;45.042;38.994;2024-02-21T10:59:04;14.25;;;7.70;;
50683;SDS011;36654;45.042;38.994;2024-02-21T11:01:31;13.68;;;7.53;;
50683;SDS011;36654;45.042;38.994;2024-02-21T11:04:15;16.88;;;8.75;;
50683;SDS011;36654;45.042;38.994;2024-02-21T11:06:41;20.85;;;10.10;;
50683;SDS011;36654;45.042;38.994;2024-02-21T11:09:09;17.73;;;9.23;;
50683;SDS011;36654;45.042;38.994;2024-02-21T11:11:39;18.67;;;8.65;;
50683;SDS011;36654;45.042;38.994;2024-02-21T11:16:35;17.38;;;8.90;;
50683;SDS011;36654;45.042;38.994;2024-02-21T11:19:07;16.73;;;9.27;;
50683;SDS011;36654;45.042;38.994;2024-02-21T11:21:53;15.57;;;8.85;;
50683;SDS011;36654;45.042;38.994;2024-02-21T11:24:33;17.50;;;7.68;;
50683;SDS011;36654;45.042;38.994;2024-02-21T11:27:12;15.77;;;8.35;;
50683;SDS011;36654;45.042;38.994;2024-02-21T11:29:43;17.10;;;7.90;;
50683;SDS011;36654;45.042;38.994;2024-02-21T11:32:15;19.92;;;8.35;;
50683;SDS011;36654;45.042;38.994;2024-02-21T11:34:52;17.20;;;8.75;;
50683;SDS011;36654;45.042;38.994;2024-02-21T11:37:29;15.60;;;8.10;;
50683;SDS011;36654;45.042;38.994;2024-02-21T11:39:58;15.10;;;7.57;;
50683;SDS011;36654;45.042;38.994;2024-02-21T11:42:25;16.45;;;8.77;;
50683;SDS011;36654;45.042;38.994;2024-02-21T11:44:54;15.52;;;8.35;;
50683;SDS011;36654;45.042;38.994;2024-02-21T11:47:25;14.50;;;8.63;;
50683;SDS011;36654;45.042;38.994;2024-02-21T11:49:53;20.67;;;9.30;;
50683;SDS011;36654;45.042;38.994;2024-02-21T11:52:21;17.95;;;7.75;;
50683;SDS011;36654;45.042;38.994;2024-02-21T11:54:50;14.10;;;7.78;;
50683;SDS011;36654;45.042;38.994;2024-02-21T11:57:16;13.50;;;7.45;;
50683;SDS011;36654;45.042;38.994;2024-02-21T11:59:44;14.77;;;7.35;;
50683;SDS011;36654;45.042;38.994;2024-02-21T12:02:11;10.32;;;7.05;;
50683;SDS011;36654;45.042;38.994;2024-02-21T12:04:37;14.90;;;7.90;;
50683;SDS011;36654;45.042;38.994;2024-02-21T12:07:03;19.30;;;10.32;;
50683;SDS011;36654;45.042;38.994;2024-02-21T12:09:29;21.45;;;11.40;;
50683;SDS011;36654;45.042;38.994;2024-02-21T12:12:02;18.45;;;10.50;;
50683;SDS011;36654;45.042;38.994;2024-02-21T12:14:30;19.25;;;9.45;;
50683;SDS011;36654;45.042;38.994;2024-02-21T12:16:57;23.65;;;10.98;;
50683;SDS011;36654;45.042;38.994;2024-02-21T12:19:23;18.77;;;9.68;;
50683;SDS011;36654;45.042;38.994;2024-02-21T12:21:49;20.33;;;10.43;;
50683;SDS011;36654;45.042;38.994;2024-02-21T12:24:15;18.70;;;9.52;;
50683;SDS011;36654;45.042;38.994;2024-02-21T12:26:46;24.75;;;9.65;;
50683;SDS011;36654;45.042;38.994;2024-02-21T12:29:12;17.48;;;9.65;;
50683;SDS011;36654;45.042;38.994;2024-02-21T12:31:39;19.85;;;10.77;;
50683;SDS011;36654;45.042;38.994;2024-02-21T12:34:05;21.70;;;10.90;;
50683;SDS011;36654;45.042;38.994;2024-02-21T12:36:35;19.23;;;10.23;;
50683;SDS011;36654;45.042;38.994;2024-02-21T12:39:07;21.02;;;10.85;;
50683;SDS011;36654;45.042;38.994;2024-02-21T12:41:33;25.92;;;12.43;;
50683;SDS011;36654;45.042;38.994;2024-02-21T12:44:00;26.90;;;10.13;;
50683;SDS011;36654;45.042;38.994;2024-02-21T12:46:26;24.88;;;10.38;;
50683;SDS011;36654;45.042;38.994;2024-02-21T12:48:52;21.30;;;11.02;;
50683;SDS011;36654;45.042;38.994;2024-02-21T12:51:17;25.63;;;11.18;;
50683;SDS011;36654;45.042;38.994;2024-02-21T12:53:47;22.85;;;10.60;;
50683;SDS011;36654;45.042;38.994;2024-02-21T12:56:15;18.38;;;10.07;;
50683;SDS011;36654;45.042;38.994;2024-02-21T12:58:41;21.15;;;9.77;;
50683;SDS011;36654;45.042;38.994;2024-02-21T13:01:07;27.00;;;11.35;;
50683;SDS011;36654;45.042;38.994;2024-02-21T13:03:34;20.30;;;11.10;;
50683;SDS011;36654;45.042;38.994;2024-02-21T13:05:59;20.52;;;10.43;;
50683;SDS011;36654;45.042;38.994;2024-02-21T13:08:25;21.40;;;11.48;;
50683;SDS011;36654;45.042;38.994;2024-02-21T13:10:51;18.80;;;9.50;;
50683;SDS011;36654;45.042;38.994;2024-02-21T13:13:16;17.98;;;9.80;;
50683;SDS011;36654;45.042;38.994;2024-02-21T13:15:42;21.10;;;10.02;;
50683;SDS011;36654;45.042;38.994;2024-02-21T13:18:08;20.85;;;9.80;;
50683;SDS011;36654;45.042;38.994;2024-02-21T13:20:35;21.52;;;10.98;;
50683;SDS011;36654;45.042;38.994;2024-02-21T13:23:01;21.45;;;10.68;;
50683;SDS011;36654;45.042;38.994;2024-02-21T13:25:27;19.65;;;10.15;;
50683;SDS011;36654;45.042;38.994;2024-02-21T13:27:53;20.02;;;11.38;;
50683;SDS011;36654;45.042;38.994;2024-02-21T13:30:19;20.60;;;11.25;;
50683;SDS011;36654;45.042;38.994;2024-02-21T13:32:45;22.10;;;10.50;;
50683;SDS011;36654;45.042;38.994;2024-02-21T13:35:11;20.20;;;11.38;;
50683;SDS011;36654;45.042;38.994;2024-02-21T13:37:38;22.55;;;10.65;;
50683;SDS011;36654;45.042;38.994;2024-02-21T13:40:05;24.75;;;11.57;;
50683;SDS011;36654;45.042;38.994;2024-02-21T13:42:31;25.02;;;11.75;;
50683;SDS011;36654;45.042;38.994;2024-02-21T13:44:57;19.50;;;10.23;;
50683;SDS011;36654;45.042;38.994;2024-02-21T13:47:22;18.33;;;9.25;;
50683;SDS011;36654;45.042;38.994;2024-02-21T13:49:48;17.15;;;8.80;;
50683;SDS011;36654;45.042;38.994;2024-02-21T13:52:14;24.75;;;10.55;;
50683;SDS011;36654;45.042;38.994;2024-02-21T13:54:40;28.27;;;12.05;;
50683;SDS011;36654;45.042;38.994;2024-02-21T13:57:07;22.35;;;10.18;;
50683;SDS011;36654;45.042;38.994;2024-02-21T13:59:33;22.65;;;10.50;;
50683;SDS011;36654;45.042;38.994;2024-02-21T14:01:59;21.38;;;11.05;;
50683;SDS011;36654;45.042;38.994;2024-02-21T14:04:25;20.67;;;10.43;;
50683;SDS011;36654;45.042;38.994;2024-02-21T14:06:50;20.95;;;10.75;;
50683;SDS011;36654;45.042;38.994;2024-02-21T14:09:17;18.73;;;9.63;;
50683;SDS011;36654;45.042;38.994;2024-02-21T14:11:44;26.13;;;11.65;;
50683;SDS011;36654;45.042;38.994;2024-02-21T14:14:10;25.83;;;11.43;;
50683;SDS011;36654;45.042;38.994;2024-02-21T14:16:36;25.20;;;10.45;;
50683;SDS011;36654;45.042;38.994;2024-02-21T14:19:02;23.52;;;11.35;;
50683;SDS011;36654;45.042;38.994;2024-02-21T14:21:28;19.45;;;10.40;;
50683;SDS011;36654;45.042;38.994;2024-02-21T14:23:54;14.15;;;8.23;;
50683;SDS011;36654;45.042;38.994;2024-02-21T14:26:19;17.58;;;8.75;;